Time;durP1;ratioP1;P1;durP2;ratioP2;P2;SDS_P1;SDS_P2;PMS_P1;PMS_P2;Temp;Humidity;BMP_temperature;BMP_pressure;BME280_temperature;BME280_humidity;BME280_pressure;Samples;Min_cycle;Max_cycle;Signal;HPM_P1;HPM_P2
2023/07/10 00:01:29;;;;;;;17.55;9.30;;;20.30;99.90;;;;;;4897803;29;20068;-68
2023/07/10 00:03:55;;;;;;;17.70;9.57;;;20.30;99.90;;;;;;4898488;29;20123;-68
2023/07/10 00:06:21;;;;;;;23.58;11.20;;;20.30;99.90;;;;;;4898074;29;20135;-68
2023/07/10 00:08:47;;;;;;;14.07;9.40;;;20.30;99.90;;;;;;4881469;29;20053;-68
2023/07/10 00:11:19;;;;;;;16.38;11.18;;;20.30;99.90;;;;;;4881553;29;20087;-68
2023/07/10 00:13:46;;;;;;;19.48;10.65;;;20.30;99.90;;;;;;4898354;29;20051;-68
2023/07/10 00:16:19;;;;;;;21.40;11.25;;;20.20;99.90;;;;;;4898197;29;20103;-68
2023/07/10 00:18:45;;;;;;;17.23;11.60;;;20.30;99.90;;;;;;4897823;29;20053;-68
2023/07/10 00:21:11;;;;;;;17.02;10.75;;;20.20;99.90;;;;;;4880925;29;20067;-68
2023/07/10 00:23:37;;;;;;;24.80;11.50;;;20.30;99.90;;;;;;4898197;29;20059;-68
2023/07/10 00:26:20;;;;;;;20.25;10.48;;;20.30;99.90;;;;;;4897798;29;20096;-68
2023/07/10 00:28:47;;;;;;;;;;;20.30;99.90;;;;;;4898769;29;20400;-68
2023/07/10 00:31:13;;;;;;;19.17;11.27;;;20.20;99.90;;;;;;4881179;29;19926;-67
2023/07/10 00:33:38;;;;;;;20.05;11.07;;;20.20;99.90;;;;;;4897620;29;20151;-68
2023/07/10 00:36:27;;;;;;;22.02;11.48;;;20.10;99.90;;;;;;4897949;29;20052;-68
2023/07/10 00:38:53;;;;;;;21.05;10.43;;;20.10;99.90;;;;;;4897783;29;20053;-68
2023/07/10 00:41:21;;;;;;;18.98;10.68;;;20.10;99.90;;;;;;4897240;29;20442;-68
2023/07/10 00:43:56;;;;;;;20.95;10.60;;;20.10;99.90;;;;;;4897618;29;20132;-68
2023/07/10 00:46:38;;;;;;;19.75;11.65;;;20.10;99.90;;;;;;4897362;29;20092;-68
2023/07/10 00:49:45;;;;;;;26.83;11.40;;;20.10;99.90;;;;;;4890943;29;20421;-68
2023/07/10 00:52:24;;;;;;;22.80;11.10;;;20.10;99.90;;;;;;4857833;29;20048;-68
2023/07/10 00:54:57;;;;;;;21.02;11.35;;;20.10;99.90;;;;;;4887265;29;20045;-68
2023/07/10 00:57:34;;;;;;;18.98;10.25;;;20.10;99.90;;;;;;4878692;29;20053;-68
2023/07/10 01:00:14;;;;;;;19.25;10.98;;;20.10;99.90;;;;;;4861489;29;20052;-68
2023/07/10 01:02:39;;;;;;;17.50;10.43;;;20.10;99.90;;;;;;4878621;29;20059;-68
2023/07/10 01:05:05;;;;;;;17.83;10.88;;;20.10;99.90;;;;;;4878402;29;20484;-68
2023/07/10 01:07:40;;;;;;;17.58;9.52;;;20.10;99.90;;;;;;4878519;29;20108;-68
2023/07/10 01:10:08;;;;;;;17.20;10.48;;;20.10;99.90;;;;;;4878391;29;20053;-68
2023/07/10 01:12:35;;;;;;;17.45;10.55;;;20.10;99.90;;;;;;4877598;29;20061;-68
2023/07/10 01:15:03;;;;;;;17.92;11.23;;;20.10;99.90;;;;;;4878417;29;20056;-68
2023/07/10 01:17:29;;;;;;;15.95;9.93;;;20.10;99.90;;;;;;4861483;29;20128;-68
2023/07/10 01:19:59;;;;;;;20.63;11.23;;;20.00;99.90;;;;;;4878236;29;20497;-68
2023/07/10 01:22:27;;;;;;;17.95;10.40;;;20.10;99.90;;;;;;4878413;29;20048;-68
2023/07/10 01:24:52;;;;;;;17.40;10.55;;;20.00;99.90;;;;;;4878028;29;20059;-68
2023/07/10 01:27:20;;;;;;;17.42;10.52;;;20.00;99.90;;;;;;4878072;29;20057;-68
2023/07/10 01:29:58;;;;;;;18.35;10.90;;;20.00;99.90;;;;;;4878180;29;20084;-68
2023/07/10 01:32:27;;;;;;;17.88;10.95;;;20.00;99.90;;;;;;4878346;29;20049;-68
2023/07/10 01:34:56;;;;;;;18.33;11.57;;;20.00;99.90;;;;;;4861846;29;20061;-68
2023/07/10 01:37:22;;;;;;;21.38;11.82;;;20.00;99.90;;;;;;4878560;29;20045;-68
2023/07/10 01:39:51;;;;;;;16.38;11.55;;;20.00;99.90;;;;;;4878552;29;20057;-68
2023/07/10 01:42:17;;;;;;;19.65;11.93;;;20.00;99.90;;;;;;4862758;29;20525;-68
2023/07/10 01:44:45;;;;;;;18.85;11.73;;;20.00;99.90;;;;;;4878453;29;20084;-68
2023/07/10 01:47:12;;;;;;;16.58;11.75;;;20.00;99.90;;;;;;4861308;29;20057;-68
2023/07/10 01:49:43;;;;;;;21.52;12.68;;;20.00;99.90;;;;;;4877504;29;20172;-68
2023/07/10 01:52:11;;;;;;;21.27;12.27;;;20.00;99.90;;;;;;4861637;29;20053;-68
2023/07/10 01:54:38;;;;;;;23.45;13.13;;;20.00;99.90;;;;;;4860820;29;20065;-68
2023/07/10 01:57:05;;;;;;;19.13;12.32;;;20.00;99.90;;;;;;4877733;29;20068;-68
2023/07/10 01:59:31;;;;;;;20.60;13.55;;;20.00;99.90;;;;;;4877917;29;20061;-68
2023/07/10 02:01:58;;;;;;;19.58;12.35;;;20.00;99.90;;;;;;4877880;29;20394;-68
2023/07/10 02:04:25;;;;;;;21.08;13.40;;;20.00;99.90;;;;;;4877618;29;20052;-68
2023/07/10 02:06:54;;;;;;;29.08;15.20;;;20.00;99.90;;;;;;4877675;29;20409;-68
2023/07/10 02:09:21;;;;;;;21.83;14.68;;;20.00;99.90;;;;;;4877356;29;20041;-68
2023/07/10 02:11:47;;;;;;;27.42;14.52;;;20.10;99.90;;;;;;4877554;29;20094;-68
2023/07/10 02:14:13;;;;;;;20.08;14.00;;;20.00;99.90;;;;;;4877510;29;20442;-68
2023/07/10 02:16:38;;;;;;;23.23;14.93;;;20.00;99.90;;;;;;4877253;29;20053;-68
2023/07/10 02:19:05;;;;;;;26.70;15.00;;;20.00;99.90;;;;;;4877170;29;20181;-68
2023/07/10 02:21:32;;;;;;;21.30;14.80;;;19.90;99.90;;;;;;4877264;29;20113;-68
2023/07/10 02:23:58;;;;;;;23.27;14.90;;;20.00;99.90;;;;;;4876921;29;20139;-68
2023/07/10 02:26:24;;;;;;;23.30;14.40;;;19.90;99.90;;;;;;4876976;29;20224;-68
2023/07/10 02:28:49;;;;;;;21.00;15.48;;;19.90;99.90;;;;;;4877205;29;20053;-68
2023/07/10 02:31:15;;;;;;;26.13;16.42;;;20.00;99.90;;;;;;4877107;29;20067;-68
2023/07/10 02:33:41;;;;;;;26.70;15.98;;;19.90;99.90;;;;;;4877041;29;20109;-68
2023/07/10 02:36:07;;;;;;;24.45;16.25;;;19.90;99.90;;;;;;4877158;29;20049;-67
2023/07/10 02:38:33;;;;;;;26.13;16.80;;;19.90;99.90;;;;;;4876805;29;20048;-68
2023/07/10 02:40:59;;;;;;;29.30;16.67;;;19.90;99.90;;;;;;4876936;29;20057;-68
2023/07/10 02:43:25;;;;;;;26.70;17.23;;;19.90;99.90;;;;;;4876942;29;20048;-68
2023/07/10 02:45:51;;;;;;;27.27;16.35;;;19.90;99.90;;;;;;4877154;29;20093;-68
2023/07/10 02:48:16;;;;;;;27.70;17.48;;;19.90;99.90;;;;;;4876919;29;20084;-68
2023/07/10 02:50:43;;;;;;;29.42;17.85;;;19.90;99.90;;;;;;4877096;29;20048;-68
2023/07/10 02:53:09;;;;;;;27.10;18.48;;;19.90;99.90;;;;;;4876806;29;20135;-67
2023/07/10 02:55:35;;;;;;;28.73;17.63;;;19.90;99.90;;;;;;4892708;29;20133;-68
2023/07/10 02:58:02;;;;;;;27.95;18.13;;;19.80;99.90;;;;;;4897037;29;20137;-68
2023/07/10 03:00:27;;;;;;;30.02;18.63;;;19.80;99.90;;;;;;4913971;29;20492;-68
2023/07/10 03:02:54;;;;;;;29.80;19.42;;;19.90;99.90;;;;;;4914458;29;20063;-68
2023/07/10 03:05:21;;;;;;;26.85;17.70;;;19.90;99.90;;;;;;4913978;29;20677;-68
2023/07/10 03:07:47;;;;;;;32.47;19.27;;;19.80;99.90;;;;;;4913916;29;20579;-68
2023/07/10 03:10:12;;;;;;;28.13;18.73;;;19.80;99.90;;;;;;4914321;29;20127;-68
2023/07/10 03:12:38;;;;;;;31.33;20.35;;;19.80;99.90;;;;;;4897139;29;20503;-68
2023/07/10 03:15:05;;;;;;;33.92;18.05;;;19.80;99.90;;;;;;4914073;29;20139;-68
2023/07/10 03:17:32;;;;;;;30.92;18.50;;;19.80;99.90;;;;;;4914548;29;20048;-68
2023/07/10 03:19:58;;;;;;;31.38;18.55;;;19.80;99.90;;;;;;4914149;29;20393;-68
2023/07/10 03:22:24;;;;;;;29.60;19.13;;;19.80;99.90;;;;;;4896914;29;20054;-68
2023/07/10 03:24:52;;;;;;;28.52;18.50;;;19.80;99.90;;;;;;4897013;29;20048;-68
2023/07/10 03:27:18;;;;;;;28.00;18.33;;;19.80;99.90;;;;;;4897361;29;20056;-68
2023/07/10 03:29:44;;;;;;;27.15;18.77;;;19.70;99.90;;;;;;4914146;29;20056;-68
2023/07/10 03:32:09;;;;;;;27.15;18.38;;;19.70;99.90;;;;;;4914126;29;20087;-68
2023/07/10 03:34:35;;;;;;;27.83;18.05;;;19.80;99.90;;;;;;4913909;29;20115;-68
2023/07/10 03:37:02;;;;;;;32.35;18.60;;;19.70;99.90;;;;;;4917626;29;20044;-68
2023/07/10 03:39:28;;;;;;;27.65;17.05;;;19.70;99.90;;;;;;4917173;29;20052;-68
2023/07/10 03:41:54;;;;;;;28.63;18.23;;;19.70;99.90;;;;;;4917407;29;20059;-68
2023/07/10 03:44:20;;;;;;;32.00;18.20;;;19.70;99.90;;;;;;4900395;29;20052;-68
2023/07/10 03:46:45;;;;;;;26.45;17.70;;;19.70;99.90;;;;;;4917532;29;20127;-68
2023/07/10 03:49:11;;;;;;;27.42;17.52;;;19.70;99.90;;;;;;4917038;29;20063;-68
2023/07/10 03:51:37;;;;;;;25.98;17.40;;;19.70;99.90;;;;;;4916908;29;20048;-68
2023/07/10 03:54:04;;;;;;;24.38;16.98;;;19.70;99.90;;;;;;4917516;29;20353;-68
2023/07/10 03:56:30;;;;;;;27.90;16.45;;;19.70;99.90;;;;;;4917070;29;20064;-68
2023/07/10 03:58:56;;;;;;;26.95;15.52;;;19.70;99.90;;;;;;4917047;29;20071;-68
2023/07/10 04:01:22;;;;;;;22.42;15.55;;;19.70;99.90;;;;;;4916971;29;20056;-68
2023/07/10 04:03:47;;;;;;;22.23;14.85;;;19.60;99.90;;;;;;4916811;29;20103;-68
2023/07/10 04:06:15;;;;;;;22.15;15.35;;;19.60;99.90;;;;;;4916662;29;20063;-68
2023/07/10 04:08:42;;;;;;;25.25;17.05;;;19.70;99.90;;;;;;4916820;29;20527;-68
2023/07/10 04:11:12;;;;;;;24.45;15.68;;;19.60;99.90;;;;;;4917221;29;20063;-68
2023/07/10 04:13:39;;;;;;;24.70;15.88;;;19.60;99.90;;;;;;4917718;29;20083;-68
2023/07/10 04:16:15;;;;;;;22.90;15.38;;;19.60;99.90;;;;;;4917315;29;20131;-67
2023/07/10 04:18:42;;;;;;;21.98;15.50;;;19.60;99.90;;;;;;4916948;29;20050;-68
2023/07/10 04:21:16;;;;;;;22.25;14.75;;;19.60;99.90;;;;;;4918859;29;20052;-68
2023/07/10 04:23:43;;;;;;;21.55;15.35;;;19.60;99.90;;;;;;4919648;29;20513;-68
2023/07/10 04:26:23;;;;;;;21.58;14.90;;;19.60;99.90;;;;;;4919039;29;20059;-68
2023/07/10 04:28:52;;;;;;;24.50;15.15;;;19.60;99.90;;;;;;4916872;29;20075;-68
2023/07/10 04:31:18;;;;;;;23.45;15.27;;;19.60;99.90;;;;;;4916826;29;20103;-68
2023/07/10 04:33:44;;;;;;;23.10;15.23;;;19.60;99.90;;;;;;4916683;29;20220;-68
2023/07/10 04:36:11;;;;;;;22.30;15.25;;;19.60;99.90;;;;;;4916597;29;20052;-68
2023/07/10 04:38:37;;;;;;;22.83;15.48;;;19.50;99.90;;;;;;4898131;29;20062;-68
2023/07/10 04:41:05;;;;;;;27.38;14.60;;;19.60;99.90;;;;;;4890159;29;20056;-68
2023/07/10 04:43:33;;;;;;;26.20;14.98;;;19.60;99.90;;;;;;4878943;29;20052;-68
2023/07/10 04:46:02;;;;;;;24.80;14.80;;;19.50;99.90;;;;;;4862601;29;20161;-68
2023/07/10 04:48:29;;;;;;;20.83;14.45;;;19.50;99.90;;;;;;4878864;29;20067;-68
2023/07/10 04:50:55;;;;;;;22.50;13.05;;;19.60;99.90;;;;;;4897675;29;20053;-68
2023/07/10 04:53:23;;;;;;;20.35;14.13;;;19.60;99.90;;;;;;4897374;29;20552;-68
2023/07/10 04:55:50;;;;;;;21.30;13.18;;;19.60;99.90;;;;;;4897567;29;20064;-68
2023/07/10 04:58:16;;;;;;;17.02;12.85;;;19.60;99.90;;;;;;4897329;29;20105;-68
2023/07/10 05:00:43;;;;;;;16.83;11.90;;;19.60;99.90;;;;;;4896203;29;20052;-68
2023/07/10 05:03:09;;;;;;;20.88;11.38;;;19.60;99.90;;;;;;4878746;29;20072;-68
2023/07/10 05:05:35;;;;;;;17.88;11.13;;;19.60;99.90;;;;;;4878477;29;20052;-68
2023/07/10 05:08:01;;;;;;;16.42;9.82;;;19.60;99.90;;;;;;4878626;29;20053;-68
2023/07/10 05:10:28;;;;;;;20.13;10.95;;;19.60;99.90;;;;;;4878723;29;20113;-68
2023/07/10 05:12:54;;;;;;;17.02;10.88;;;19.60;99.90;;;;;;4861563;29;20061;-68
2023/07/10 05:15:20;;;;;;;16.67;10.35;;;19.60;99.90;;;;;;4878344;29;20049;-68
2023/07/10 05:17:46;;;;;;;12.52;9.40;;;19.60;99.90;;;;;;4878043;29;20109;-68
2023/07/10 05:20:12;;;;;;;12.95;9.10;;;19.60;99.90;;;;;;4878411;29;20135;-68
2023/07/10 05:22:38;;;;;;;13.98;8.82;;;19.60;99.90;;;;;;4878305;29;20156;-68
2023/07/10 05:25:04;;;;;;;11.85;8.02;;;19.60;99.90;;;;;;4878446;29;20120;-68
2023/07/10 05:27:30;;;;;;;14.50;7.13;;;19.60;99.90;;;;;;4878445;29;20053;-68
2023/07/10 05:29:56;;;;;;;10.80;6.90;;;19.60;99.90;;;;;;4878752;29;20064;-68
2023/07/10 05:32:21;;;;;;;12.50;6.47;;;19.50;99.90;;;;;;4878676;29;20060;-68
2023/07/10 05:34:47;;;;;;;10.48;4.97;;;19.50;99.90;;;;;;4878152;29;20049;-67
2023/07/10 05:37:13;;;;;;;10.88;5.78;;;19.50;99.90;;;;;;4878410;29;20053;-68
2023/07/10 05:39:38;;;;;;;9.65;5.07;;;19.50;99.90;;;;;;4878052;29;20413;-68
2023/07/10 05:42:06;;;;;;;8.88;4.78;;;19.50;99.90;;;;;;4846285;29;20060;-68
2023/07/10 05:44:32;;;;;;;8.45;4.88;;;19.50;99.90;;;;;;4861295;29;20550;-68
2023/07/10 05:46:57;;;;;;;8.18;4.95;;;19.50;99.90;;;;;;4878205;29;20077;-68
2023/07/10 05:49:26;;;;;;;7.00;4.00;;;19.50;99.90;;;;;;4877943;29;20053;-68
2023/07/10 05:51:52;;;;;;;10.70;4.82;;;19.40;99.90;;;;;;4877866;29;20056;-67
2023/07/10 05:54:21;;;;;;;5.78;4.38;;;19.50;99.90;;;;;;4877792;29;20088;-68
2023/07/10 05:56:47;;;;;;;7.75;4.07;;;19.50;99.90;;;;;;4877848;29;20040;-67
2023/07/10 05:59:14;;;;;;;6.65;3.78;;;19.50;99.90;;;;;;4860699;29;20056;-67
2023/07/10 06:01:40;;;;;;;8.57;4.20;;;19.50;99.90;;;;;;4877619;29;20056;-67
2023/07/10 06:04:06;;;;;;;6.60;4.00;;;19.50;99.90;;;;;;4877461;29;20057;-67
2023/07/10 06:06:32;;;;;;;7.22;3.42;;;19.50;99.90;;;;;;4877290;29;20186;-67
2023/07/10 06:08:58;;;;;;;8.77;3.90;;;19.50;99.90;;;;;;4877486;29;20446;-67
2023/07/10 06:11:23;;;;;;;14.05;3.75;;;19.50;99.90;;;;;;4877332;29;20526;-68
2023/07/10 06:13:50;;;;;;;6.72;3.72;;;19.50;99.90;;;;;;4877274;29;20060;-68
2023/07/10 06:16:15;;;;;;;5.53;3.63;;;19.50;99.90;;;;;;4881935;29;20052;-68
2023/07/10 06:18:41;;;;;;;6.85;3.25;;;19.50;99.90;;;;;;4882220;29;20048;-68
2023/07/10 06:21:09;;;;;;;7.38;3.60;;;19.50;99.90;;;;;;4896603;29;20053;-69
2023/07/10 06:23:35;;;;;;;5.60;3.13;;;19.50;99.90;;;;;;4881382;29;20079;-68
2023/07/10 06:26:02;;;;;;;4.72;2.90;;;19.50;99.90;;;;;;4897863;29;20060;-69
2023/07/10 06:28:30;;;;;;;5.35;3.15;;;19.50;99.90;;;;;;4882319;29;20103;-69
2023/07/10 06:31:03;;;;;;;6.63;3.15;;;19.50;99.90;;;;;;4881448;29;20060;-68
2023/07/10 06:33:30;;;;;;;5.82;3.03;;;19.60;99.90;;;;;;4895772;29;20044;-69
2023/07/10 06:35:56;;;;;;;6.50;3.40;;;19.60;99.90;;;;;;4895774;29;20135;-69
2023/07/10 06:38:23;;;;;;;5.68;2.60;;;19.70;99.90;;;;;;4878916;29;20083;-69
2023/07/10 06:40:50;;;;;;;5.97;3.05;;;19.70;99.90;;;;;;4895644;29;20057;-69
2023/07/10 06:43:17;;;;;;;7.53;3.20;;;19.70;99.90;;;;;;4895830;29;20072;-69
2023/07/10 06:45:44;;;;;;;6.85;2.30;;;19.90;99.90;;;;;;4895830;29;20440;-69
2023/07/10 06:48:10;;;;;;;9.63;3.40;;;20.10;99.90;;;;;;4895483;29;20068;-69
2023/07/10 06:50:36;;;;;;;4.55;2.28;;;20.10;99.90;;;;;;4895597;29;20060;-69
2023/07/10 06:53:02;;;;;;;7.00;2.38;;;20.10;99.90;;;;;;4879146;29;20040;-69
2023/07/10 06:55:27;;;;;;;12.25;2.58;;;20.10;99.90;;;;;;4895791;29;20512;-69
2023/07/10 06:57:53;;;;;;;10.90;2.40;;;20.20;99.90;;;;;;4895285;29;20040;-69
2023/07/10 07:00:19;;;;;;;8.55;2.78;;;20.40;99.90;;;;;;4878702;29;20384;-68
2023/07/10 07:02:45;;;;;;;7.93;2.42;;;20.50;99.90;;;;;;4895919;29;20539;-68
2023/07/10 07:05:11;;;;;;;7.07;2.20;;;20.80;99.90;;;;;;4895647;29;20092;-68
2023/07/10 07:07:38;;;;;;;4.97;2.38;;;20.90;99.90;;;;;;4895244;29;20397;-69
2023/07/10 07:10:05;;;;;;;6.32;2.30;;;20.90;99.90;;;;;;4896383;29;20071;-69
2023/07/10 07:12:31;;;;;;;5.82;2.70;;;20.90;99.90;;;;;;4899202;29;20468;-69
2023/07/10 07:14:57;;;;;;;7.55;2.17;;;20.80;99.90;;;;;;4899204;29;20180;-69
2023/07/10 07:17:23;;;;;;;8.57;2.40;;;20.90;99.90;;;;;;4898897;29;20135;-69
2023/07/10 07:19:48;;;;;;;10.15;2.00;;;21.10;99.90;;;;;;4899028;29;20540;-69
2023/07/10 07:22:15;;;;;;;7.50;2.25;;;21.30;99.90;;;;;;4899112;29;20067;-69
2023/07/10 07:24:40;;;;;;;6.13;1.88;;;21.30;99.90;;;;;;4881989;29;20123;-69
2023/07/10 07:27:06;;;;;;;5.72;2.10;;;21.40;99.90;;;;;;4899075;29;20045;-67
2023/07/10 07:29:32;;;;;;;7.47;2.15;;;21.50;99.90;;;;;;4882517;29;20493;-68
2023/07/10 07:31:59;;;;;;;5.22;1.73;;;21.40;99.90;;;;;;4899092;29;20517;-67
2023/07/10 07:34:24;;;;;;;7.22;2.15;;;21.40;99.90;;;;;;4898817;29;20508;-68
2023/07/10 07:36:53;;;;;;;7.38;1.83;;;21.30;99.90;;;;;;4898864;29;20055;-67
2023/07/10 07:39:28;;;;;;;6.85;1.60;;;21.20;99.90;;;;;;4899109;29;20052;-67
2023/07/10 07:41:53;;;;;;;6.75;1.75;;;21.30;99.90;;;;;;4898858;29;20080;-67
2023/07/10 07:44:19;;;;;;;8.10;2.22;;;21.30;99.90;;;;;;4881973;29;20568;-67
2023/07/10 07:46:45;;;;;;;4.53;1.45;;;21.30;99.90;;;;;;4898632;29;20084;-67
2023/07/10 07:49:11;;;;;;;7.57;1.70;;;21.30;99.90;;;;;;4898469;29;20428;-68
2023/07/10 07:51:37;;;;;;;5.95;1.90;;;21.30;99.90;;;;;;4881609;29;20420;-66
2023/07/10 07:54:11;;;;;;;7.30;1.80;;;21.20;99.90;;;;;;4898875;29;20122;-66
2023/07/10 07:56:37;;;;;;;7.93;2.00;;;21.40;99.90;;;;;;4898634;29;20049;-67
2023/07/10 07:59:02;;;;;;;5.78;1.50;;;21.30;99.90;;;;;;4896266;29;20937;-68
2023/07/10 08:01:28;;;;;;;5.00;1.55;;;21.40;99.90;;;;;;4880633;29;20132;-67
2023/07/10 08:03:54;;;;;;;4.85;1.65;;;21.40;99.90;;;;;;4897742;29;20044;-68
2023/07/10 08:06:20;;;;;;;4.88;1.60;;;21.50;99.90;;;;;;4898167;29;20080;-67
2023/07/10 08:08:46;;;;;;;6.15;1.80;;;21.60;99.90;;;;;;4881686;29;20090;-67
2023/07/10 08:11:12;;;;;;;5.18;1.88;;;21.60;99.90;;;;;;4898126;29;20521;-67
2023/07/10 08:13:38;;;;;;;7.25;2.00;;;21.70;99.90;;;;;;4898544;29;20056;-67
2023/07/10 08:16:04;;;;;;;10.18;2.20;;;21.60;99.90;;;;;;4898104;29;20053;-66
2023/07/10 08:18:30;;;;;;;7.38;1.92;;;21.60;99.90;;;;;;4898123;29;20131;-67
2023/07/10 08:21:04;;;;;;;5.80;1.95;;;21.60;99.90;;;;;;4897818;29;20584;-67
2023/07/10 08:23:30;;;;;;;9.75;1.90;;;21.80;99.90;;;;;;4898133;29;20080;-67
2023/07/10 08:25:56;;;;;;;6.90;2.10;;;22.00;99.90;;;;;;4897893;29;20064;-66
2023/07/10 08:28:21;;;;;;;6.30;2.15;;;22.00;99.90;;;;;;4897919;29;20053;-67
2023/07/10 08:30:47;;;;;;;8.27;2.13;;;22.00;99.90;;;;;;4895847;29;20096;-67
2023/07/10 08:33:13;;;;;;;6.10;2.20;;;22.00;99.90;;;;;;4897837;29;20045;-67
2023/07/10 08:35:38;;;;;;;5.32;2.45;;;21.90;99.90;;;;;;4897546;29;20099;-67
2023/07/10 08:38:05;;;;;;;7.43;2.47;;;22.00;99.90;;;;;;4897586;29;20053;-67
2023/07/10 08:40:34;;;;;;;7.15;2.35;;;22.00;99.90;;;;;;4888348;29;20488;-67
2023/07/10 08:43:16;;;;;;;7.25;2.22;;;21.90;99.90;;;;;;4888028;29;20063;-67
2023/07/10 08:45:44;;;;;;;6.28;2.72;;;22.00;99.90;;;;;;4878510;29;20049;-67
2023/07/10 08:48:30;;;;;;;7.60;2.47;;;21.90;99.90;;;;;;4878387;29;20061;-67
2023/07/10 08:51:16;;;;;;;12.27;2.83;;;22.00;99.90;;;;;;4879179;29;20052;-67
2023/07/10 08:53:55;;;;;;;14.88;2.15;;;22.10;99.90;;;;;;4878244;29;20048;-67
2023/07/10 08:56:33;;;;;;;7.28;2.22;;;22.00;99.90;;;;;;4878340;29;20057;-67
2023/07/10 08:59:11;;;;;;;8.68;2.35;;;22.00;99.90;;;;;;4865293;29;20435;-67
2023/07/10 09:01:41;;;;;;;10.63;2.25;;;22.10;99.90;;;;;;4887075;29;20075;-67
2023/07/10 09:04:13;;;;;;;10.15;2.28;;;22.30;99.90;;;;;;4873215;29;20136;-67
2023/07/10 09:06:42;;;;;;;9.07;2.25;;;22.30;99.90;;;;;;4886784;29;20064;-67
2023/07/10 09:09:42;;;;;;;7.20;1.95;;;22.50;99.90;;;;;;4887008;29;20075;-67
2023/07/10 09:12:33;;;;;;;5.25;1.67;;;22.40;99.90;;;;;;4888257;29;20103;-67
2023/07/10 09:15:11;;;;;;;5.93;2.00;;;22.70;99.90;;;;;;4884999;29;20578;-66
2023/07/10 09:17:53;;;;;;;8.05;2.17;;;22.70;99.90;;;;;;4888705;29;20076;-67
2023/07/10 09:20:22;;;;;;;3.75;1.60;;;22.80;99.90;;;;;;4873482;29;20084;-67
2023/07/10 09:22:56;;;;;;;9.35;2.08;;;22.70;99.90;;;;;;4870730;29;20080;-66
2023/07/10 09:25:23;;;;;;;8.60;1.80;;;22.70;99.90;;;;;;4887858;29;20041;-66
2023/07/10 09:27:49;;;;;;;9.85;2.70;;;22.50;99.90;;;;;;4887073;29;20112;-66
2023/07/10 09:30:52;;;;;;;7.28;2.20;;;22.50;99.90;;;;;;4887345;29;20053;-67
2023/07/10 09:33:20;;;;;;;4.80;2.10;;;22.50;99.90;;;;;;4860282;29;20075;-66
2023/07/10 09:35:47;;;;;;;11.88;2.13;;;22.30;99.90;;;;;;4877711;29;20815;-66
2023/07/10 09:38:15;;;;;;;10.15;2.17;;;22.60;99.90;;;;;;4877463;29;20505;-66
2023/07/10 09:40:49;;;;;;;13.05;2.20;;;22.70;99.90;;;;;;4877718;29;20052;-67
2023/07/10 09:43:18;;;;;;;10.27;2.85;;;23.00;99.90;;;;;;4878161;29;20083;-67
2023/07/10 09:45:47;;;;;;;6.65;2.25;;;23.10;99.90;;;;;;4878054;29;20057;-66
2023/07/10 09:48:35;;;;;;;8.50;2.58;;;23.00;99.90;;;;;;4877873;29;20053;-67
2023/07/10 09:51:10;;;;;;;8.18;2.35;;;23.10;99.90;;;;;;4877806;29;20455;-67
2023/07/10 09:53:45;;;;;;;14.75;2.30;;;23.30;99.90;;;;;;4877571;29;20057;-67
2023/07/10 09:56:29;;;;;;;6.10;1.88;;;23.40;99.90;;;;;;4860995;29;20057;-67
2023/07/10 09:58:56;;;;;;;8.77;2.20;;;23.50;99.90;;;;;;4878035;29;20057;-67
2023/07/10 10:01:30;;;;;;;6.45;2.03;;;23.40;99.90;;;;;;4877580;29;20057;-66
2023/07/10 10:03:56;;;;;;;8.15;2.00;;;23.60;99.90;;;;;;4877586;29;20049;-67
2023/07/10 10:06:26;;;;;;;8.80;1.90;;;23.50;99.90;;;;;;4877034;29;20561;-67
2023/07/10 10:08:52;;;;;;;7.72;2.08;;;23.60;99.90;;;;;;4860311;29;20051;-67
2023/07/10 10:11:28;;;;;;;11.73;2.10;;;23.70;99.90;;;;;;4877538;29;20452;-67
2023/07/10 10:13:56;;;;;;;5.68;1.80;;;23.80;99.90;;;;;;4860660;29;20095;-67
2023/07/10 10:16:40;;;;;;;4.88;1.80;;;24.00;99.90;;;;;;4861035;29;20049;-67
2023/07/10 10:19:18;;;;;;;8.90;1.92;;;24.10;99.90;;;;;;4877690;29;20055;-67
2023/07/10 10:21:43;;;;;;;6.95;1.95;;;24.00;99.90;;;;;;4877323;29;20409;-67
2023/07/10 10:24:11;;;;;;;6.15;2.25;;;24.00;99.90;;;;;;4877541;29;20061;-67
2023/07/10 10:26:50;;;;;;;5.90;1.80;;;24.10;99.90;;;;;;4877112;29;20049;-67
2023/07/10 10:29:19;;;;;;;9.32;2.20;;;24.10;99.90;;;;;;4877426;29;20088;-67
2023/07/10 10:32:10;;;;;;;7.47;1.90;;;24.20;99.90;;;;;;4877308;29;20053;-66
2023/07/10 10:34:59;;;;;;;11.75;2.38;;;24.20;99.90;;;;;;4848014;29;20056;-67
2023/07/10 10:37:43;;;;;;;7.13;2.10;;;24.20;99.90;;;;;;4877070;29;20569;-67
2023/07/10 10:40:45;;;;;;;11.00;2.10;;;24.30;99.90;;;;;;4877166;29;20057;-67
2023/07/10 10:43:20;;;;;;;9.77;2.28;;;24.40;99.90;;;;;;4877250;29;20109;-67
2023/07/10 10:45:51;;;;;;;7.50;2.60;;;24.50;99.90;;;;;;4876577;29;20078;-67
2023/07/10 10:48:32;;;;;;;8.55;2.35;;;24.40;99.90;;;;;;4876778;29;20071;-67
2023/07/10 10:51:18;;;;;;;9.88;2.00;;;24.60;99.90;;;;;;4876450;29;20408;-67
2023/07/10 10:53:53;;;;;;;6.32;1.70;;;24.50;99.90;;;;;;4847857;29;20731;-67
2023/07/10 10:56:21;;;;;;;8.75;1.52;;;24.50;99.90;;;;;;4876748;29;20441;-67
2023/07/10 10:59:02;;;;;;;8.50;2.00;;;24.60;99.90;;;;;;4876698;29;20049;-68
2023/07/10 11:01:37;;;;;;;8.17;1.80;;;24.60;99.90;;;;;;4876419;29;20061;-68
2023/07/10 11:04:31;;;;;;;9.07;1.83;;;24.50;99.90;;;;;;4876610;29;20049;-68
2023/07/10 11:07:04;;;;;;;4.70;1.67;;;24.50;99.90;;;;;;4876352;29;20053;-68
2023/07/10 11:09:31;;;;;;;7.28;1.67;;;24.60;99.90;;;;;;4876923;29;20056;-68
2023/07/10 11:11:59;;;;;;;7.28;1.77;;;24.70;99.90;;;;;;4861896;29;20509;-67
2023/07/10 11:14:26;;;;;;;7.20;1.50;;;24.70;99.90;;;;;;4876831;29;20085;-68
2023/07/10 11:16:52;;;;;;;7.15;1.60;;;24.70;99.90;;;;;;4859786;29;20124;-68
2023/07/10 11:19:26;;;;;;;8.20;2.00;;;24.60;99.90;;;;;;4876667;29;20053;-67
2023/07/10 11:21:52;;;;;;;3.90;1.67;;;24.70;99.90;;;;;;4876959;29;20061;-68
2023/07/10 11:24:28;;;;;;;7.70;1.98;;;24.90;99.90;;;;;;4876820;29;20052;-68
2023/07/10 11:27:00;;;;;;;5.60;1.88;;;24.90;99.90;;;;;;4876681;29;20044;-68
2023/07/10 11:29:42;;;;;;;5.20;1.80;;;24.90;99.90;;;;;;4876932;29;20053;-68
2023/07/10 11:32:19;;;;;;;6.72;1.33;;;25.00;99.90;;;;;;4876615;29;20097;-68
2023/07/10 11:35:18;;;;;;;4.53;1.45;;;25.10;99.90;;;;;;4876514;29;20052;-67
2023/07/10 11:37:49;;;;;;;5.85;1.60;;;25.00;99.90;;;;;;4876540;29;20044;-67
2023/07/10 11:40:26;;;;;;;9.15;1.60;;;25.10;99.90;;;;;;4876236;29;20073;-68
2023/07/10 11:42:56;;;;;;;7.03;1.70;;;25.10;99.90;;;;;;4880128;29;20128;-68
2023/07/10 11:45:35;;;;;;;8.40;1.92;;;25.10;99.90;;;;;;4876124;29;20067;-68
2023/07/10 11:48:01;;;;;;;7.28;2.03;;;24.80;99.90;;;;;;4888256;29;20460;-69
2023/07/10 11:50:29;;;;;;;5.53;1.20;;;24.60;99.90;;;;;;4884133;29;20053;-69
2023/07/10 11:53:22;;;;;;;10.48;1.80;;;24.50;99.90;;;;;;4876183;29;20064;-69
2023/07/10 11:55:59;;;;;;;7.47;1.85;;;24.50;99.90;;;;;;4859877;29;20092;-67
2023/07/10 11:58:33;;;;;;;11.82;1.63;;;24.40;99.90;;;;;;4879890;29;20067;-67
2023/07/10 12:01:15;;;;;;;6.57;1.38;;;24.60;99.90;;;;;;4863100;29;20088;-67
2023/07/10 12:03:42;;;;;;;6.15;1.50;;;24.80;99.90;;;;;;4879756;29;20092;-67
2023/07/10 12:06:17;;;;;;;11.73;1.63;;;24.90;99.90;;;;;;4880074;29;20057;-67
2023/07/10 12:08:45;;;;;;;6.38;1.30;;;24.90;99.90;;;;;;4879638;29;20045;-67
2023/07/10 12:11:36;;;;;;;10.35;1.70;;;25.00;99.90;;;;;;4863147;29;20097;-67
2023/07/10 12:14:23;;;;;;;8.98;1.77;;;25.10;99.90;;;;;;4879804;29;20075;-67
2023/07/10 12:16:53;;;;;;;7.20;1.60;;;25.20;99.90;;;;;;4884299;29;20057;-67
2023/07/10 12:19:27;;;;;;;7.45;1.50;;;25.20;99.90;;;;;;4887661;29;20129;-67
2023/07/10 12:21:53;;;;;;;6.97;1.33;;;25.30;99.90;;;;;;4886751;29;20097;-68
2023/07/10 12:24:19;;;;;;;12.88;1.70;;;25.20;99.90;;;;;;4891553;29;20441;-68
2023/07/10 12:26:54;;;;;;;9.35;1.60;;;25.30;99.90;;;;;;4882831;29;20056;-67
2023/07/10 12:29:20;;;;;;;6.53;1.50;;;25.40;99.90;;;;;;4881489;29;20056;-68
2023/07/10 12:31:46;;;;;;;5.55;1.30;;;25.40;99.90;;;;;;4893797;29;20122;-67
2023/07/10 12:34:20;;;;;;;7.35;1.50;;;25.50;99.90;;;;;;4892488;29;20573;-67
2023/07/10 12:36:49;;;;;;;7.20;1.60;;;25.60;99.90;;;;;;4890235;29;20479;-68
2023/07/10 12:39:15;;;;;;;7.85;1.20;;;25.60;99.90;;;;;;4891636;29;20044;-68
2023/07/10 12:41:46;;;;;;;5.68;1.20;;;25.60;99.90;;;;;;4890545;29;20060;-68
2023/07/10 12:44:19;;;;;;;6.60;1.27;;;25.80;99.90;;;;;;4892824;29;20128;-67
2023/07/10 12:46:45;;;;;;;6.80;1.92;;;25.50;99.90;;;;;;4887399;29;20114;-67
2023/07/10 12:49:14;;;;;;;6.68;1.30;;;25.60;99.90;;;;;;4890289;29;20056;-67
2023/07/10 12:51:47;;;;;;;8.15;1.20;;;25.60;99.90;;;;;;4891668;29;20117;-67